createdAt,value
2024-05-09T00:00:36.219Z,9.24
2024-05-09T00:03:07.914Z,9.24
2024-05-09T00:05:35.420Z,9.23
2024-05-09T00:08:02.611Z,9.18
2024-05-09T00:10:35.797Z,9.15
2024-05-09T00:13:05.219Z,9.14
2024-05-09T00:15:33.366Z,9.12
2024-05-09T00:18:00.391Z,9.09
2024-05-09T00:20:35.299Z,9.09
2024-05-09T00:23:07.052Z,9.08
2024-05-09T00:25:34.170Z,9.08
2024-05-09T00:28:00.917Z,9.06
2024-05-09T00:30:33.763Z,9.02
2024-05-09T00:33:03.854Z,9.02
2024-05-09T00:35:31.234Z,9.00
2024-05-09T00:37:57.970Z,9.01
2024-05-09T00:40:35.013Z,8.99
2024-05-09T00:43:06.163Z,8.98
2024-05-09T00:45:34.371Z,8.96
2024-05-09T00:48:06.753Z,8.96
2024-05-09T00:50:37.461Z,8.95
2024-05-09T00:53:06.563Z,8.95
2024-05-09T00:55:35.197Z,8.95
2024-05-09T00:58:02.844Z,8.99
2024-05-09T01:00:37.800Z,8.98
2024-05-09T01:03:07.442Z,8.96
2024-05-09T01:05:35.051Z,8.95
2024-05-09T01:08:03.102Z,8.96
2024-05-09T01:10:34.529Z,8.89
2024-05-09T01:13:03.893Z,8.81
2024-05-09T01:15:30.661Z,8.80
2024-05-09T01:17:58.416Z,8.79
2024-05-09T01:20:36.579Z,8.77
2024-05-09T01:23:08.823Z,8.76
2024-05-09T01:25:35.814Z,8.75
2024-05-09T01:28:02.486Z,8.73
2024-05-09T01:30:34.624Z,8.82
2024-05-09T01:33:04.660Z,8.87
2024-05-09T01:35:32.001Z,8.83
2024-05-09T01:37:58.774Z,8.77
2024-05-09T01:40:35.408Z,8.75
2024-05-09T01:43:05.045Z,8.71
2024-05-09T01:45:31.646Z,8.67
2024-05-09T01:47:58.796Z,8.76
2024-05-09T01:50:36.990Z,8.75
2024-05-09T01:53:07.693Z,8.65
2024-05-09T01:55:34.506Z,8.64
2024-05-09T01:58:01.052Z,8.60
2024-05-09T02:00:37.868Z,8.57
2024-05-09T02:03:15.894Z,8.51
2024-05-09T02:05:48.479Z,8.42
2024-05-09T02:08:20.860Z,8.35
2024-05-09T02:10:49.820Z,8.29
2024-05-09T02:13:17.135Z,8.25
2024-05-09T02:15:44.315Z,8.20
2024-05-09T02:18:11.706Z,8.18
2024-05-09T02:20:40.813Z,8.18
2024-05-09T02:23:08.713Z,8.22
2024-05-09T02:25:35.607Z,8.27
2024-05-09T02:28:02.690Z,8.22
2024-05-09T02:30:38.460Z,8.16
2024-05-09T02:33:09.402Z,8.12
2024-05-09T02:35:37.283Z,8.06
2024-05-09T02:38:04.337Z,8.01
2024-05-09T02:40:37.179Z,8.00
2024-05-09T02:43:06.549Z,7.95
2024-05-09T02:45:33.532Z,7.98
2024-05-09T02:48:00.788Z,7.98
2024-05-09T02:50:34.551Z,7.94
2024-05-09T02:53:06.034Z,7.90
2024-05-09T02:55:33.042Z,7.86
2024-05-09T02:57:59.831Z,7.84
2024-05-09T03:00:34.828Z,7.81
2024-05-09T03:03:12.084Z,7.76
2024-05-09T03:05:42.590Z,7.75
2024-05-09T03:08:09.665Z,7.72
2024-05-09T03:10:38.511Z,7.67
2024-05-09T03:13:12.797Z,7.65
2024-05-09T03:15:40.666Z,7.63
2024-05-09T03:18:07.649Z,7.60
2024-05-09T03:20:36.188Z,7.56
2024-05-09T03:23:05.510Z,7.52
2024-05-09T03:25:33.127Z,7.46
2024-05-09T03:27:59.995Z,7.41
2024-05-09T03:30:36.672Z,7.37
2024-05-09T03:33:13.927Z,7.34
2024-05-09T03:35:41.480Z,7.29
2024-05-09T03:38:08.299Z,7.26
2024-05-09T03:40:35.215Z,7.25
2024-05-09T03:43:01.832Z,7.23
2024-05-09T03:45:28.435Z,7.24
2024-05-09T03:47:55.261Z,7.22
2024-05-09T03:50:30.009Z,7.19
2024-05-09T03:53:01.345Z,7.15
2024-05-09T03:55:28.374Z,7.12
2024-05-09T03:57:55.081Z,7.08
2024-05-09T04:00:30.770Z,7.05
2024-05-09T04:03:04.142Z,7.02
2024-05-09T04:05:31.439Z,6.98
2024-05-09T04:07:58.373Z,6.97
2024-05-09T04:10:32.406Z,6.94
2024-05-09T04:13:00.787Z,6.92
2024-05-09T04:15:27.351Z,6.93
2024-05-09T04:17:54.230Z,6.95
2024-05-09T04:20:29.588Z,6.94
2024-05-09T04:23:04.283Z,6.96
2024-05-09T04:25:31.958Z,6.96
2024-05-09T04:27:58.584Z,6.98
2024-05-09T04:30:34.584Z,7.03
2024-05-09T04:33:06.319Z,7.08
2024-05-09T04:35:34.041Z,7.12
2024-05-09T04:38:00.979Z,7.22
2024-05-09T04:40:33.226Z,7.29
2024-05-09T04:43:03.935Z,7.37
2024-05-09T04:45:30.700Z,7.54
2024-05-09T04:47:57.781Z,7.75
2024-05-09T04:50:33.874Z,7.92
2024-05-09T04:53:05.120Z,8.11
2024-05-09T04:55:32.672Z,8.22
2024-05-09T04:57:59.256Z,8.64
2024-05-09T05:00:32.615Z,10.00
2024-05-09T05:03:07.004Z,11.25
2024-05-09T05:05:36.142Z,12.13
2024-05-09T05:08:02.860Z,12.54
2024-05-09T05:10:35.431Z,12.03
2024-05-09T05:13:17.943Z,11.45
2024-05-09T05:15:50.021Z,11.44
2024-05-09T05:18:17.208Z,12.33
2024-05-09T05:20:44.629Z,11.67
2024-05-09T05:23:13.561Z,10.90
2024-05-09T05:25:41.374Z,10.65
2024-05-09T05:28:08.261Z,10.33
2024-05-09T05:30:37.602Z,10.31
2024-05-09T05:33:06.512Z,11.63
2024-05-09T05:35:34.548Z,12.50
2024-05-09T05:38:02.164Z,13.25
2024-05-09T05:40:36.205Z,13.78
2024-05-09T05:43:10.266Z,13.89
2024-05-09T05:45:37.429Z,14.09
2024-05-09T05:48:05.761Z,14.34
2024-05-09T05:50:36.495Z,14.45
2024-05-09T05:53:09.048Z,14.75
2024-05-09T05:55:37.354Z,14.90
2024-05-09T05:58:04.458Z,14.53
2024-05-09T06:00:38.187Z,13.04
2024-05-09T06:03:10.451Z,12.69
2024-05-09T06:05:39.972Z,13.22
2024-05-09T06:08:07.377Z,14.23
2024-05-09T06:10:38.895Z,13.41
2024-05-09T06:13:08.887Z,13.09
2024-05-09T06:15:35.504Z,13.14
2024-05-09T06:18:05.646Z,12.38
2024-05-09T06:20:36.442Z,12.52
2024-05-09T06:23:09.365Z,12.31
2024-05-09T06:25:36.926Z,12.26
2024-05-09T06:28:04.020Z,12.23
2024-05-09T06:30:38.398Z,12.44
2024-05-09T06:33:11.181Z,12.77
2024-05-09T06:35:40.592Z,12.92
2024-05-09T06:38:09.512Z,12.83
2024-05-09T06:40:42.647Z,12.74
2024-05-09T06:43:16.339Z,12.80
2024-05-09T06:45:47.367Z,12.85
2024-05-09T06:48:14.887Z,12.94
2024-05-09T06:50:42.053Z,13.00
2024-05-09T06:53:09.502Z,13.07
2024-05-09T06:55:37.338Z,13.19
2024-05-09T06:58:06.698Z,13.29
2024-05-09T07:00:39.000Z,13.46
2024-05-09T07:03:14.689Z,13.51
2024-05-09T07:05:43.768Z,13.59
2024-05-09T07:08:10.568Z,13.62
2024-05-09T07:10:37.634Z,13.71
2024-05-09T07:13:11.700Z,13.80
2024-05-09T07:15:39.104Z,13.85
2024-05-09T07:18:13.857Z,13.88
2024-05-09T07:20:41.100Z,13.97
2024-05-09T07:23:11.763Z,14.09
2024-05-09T07:25:39.542Z,14.20
2024-05-09T07:28:09.933Z,14.23
2024-05-09T07:30:36.539Z,14.37
2024-05-09T07:33:03.735Z,14.51
2024-05-09T07:35:31.068Z,14.49
2024-05-09T07:37:58.121Z,14.55
2024-05-09T07:40:32.835Z,14.87
2024-05-09T07:43:04.015Z,15.51
2024-05-09T07:45:47.762Z,16.73
2024-05-09T07:53:38.690Z,21.08
2024-05-09T07:56:09.103Z,22.00
2024-05-09T07:58:36.515Z,22.40
2024-05-09T08:01:03.376Z,23.41
2024-05-09T08:03:30.535Z,23.66
2024-05-09T08:05:57.217Z,23.01
2024-05-09T08:08:23.859Z,23.26
2024-05-09T08:10:51.327Z,23.48
2024-05-09T08:13:18.214Z,22.79
2024-05-09T08:15:45.071Z,23.19
2024-05-09T08:18:12.123Z,23.72
2024-05-09T08:20:39.816Z,22.94
2024-05-09T08:23:06.935Z,21.36
2024-05-09T08:25:33.648Z,20.88
2024-05-09T08:28:00.394Z,20.49
2024-05-09T08:30:33.515Z,20.98
2024-05-09T08:33:05.013Z,21.28
2024-05-09T08:35:32.796Z,21.37
2024-05-09T08:37:59.917Z,21.05
2024-05-09T08:40:34.109Z,20.80
2024-05-09T08:43:06.759Z,21.83
2024-05-09T08:45:35.228Z,23.46
2024-05-09T08:48:06.272Z,23.82
2024-05-09T08:50:38.742Z,24.40
2024-05-09T08:53:07.736Z,24.90
2024-05-09T08:55:35.861Z,25.42
2024-05-09T08:58:05.591Z,25.33
2024-05-09T09:00:37.003Z,25.44
2024-05-09T09:03:09.100Z,25.83
2024-05-09T09:05:38.803Z,24.70
2024-05-09T09:08:07.943Z,25.60
2024-05-09T09:10:35.252Z,26.47
2024-05-09T09:13:04.470Z,26.67
2024-05-09T09:15:31.774Z,26.80
2024-05-09T09:18:00.215Z,26.56
2024-05-09T09:20:35.300Z,26.57
2024-05-09T09:23:03.775Z,26.26
2024-05-09T09:25:30.669Z,26.22
2024-05-09T09:27:58.512Z,25.06
2024-05-09T09:30:35.112Z,24.60
2024-05-09T09:33:08.595Z,24.53
2024-05-09T09:35:36.287Z,25.32
2024-05-09T09:38:04.745Z,25.65
2024-05-09T09:40:37.590Z,26.42
2024-05-09T09:43:14.586Z,25.99
2024-05-09T09:45:43.252Z,25.06
2024-05-09T09:48:10.762Z,25.80
2024-05-09T09:50:38.047Z,26.49
2024-05-09T09:53:07.527Z,26.71
2024-05-09T09:55:35.660Z,27.28
2024-05-09T09:58:04.068Z,27.83
2024-05-09T10:00:33.386Z,27.57
2024-05-09T10:03:01.802Z,27.15
2024-05-09T10:05:29.889Z,26.81
2024-05-09T10:07:58.566Z,27.12
2024-05-09T10:10:32.197Z,26.35
2024-05-09T10:13:04.298Z,26.21
2024-05-09T10:15:52.342Z,27.24
2024-05-09T10:18:28.156Z,26.79
2024-05-09T10:20:57.439Z,24.96
2024-05-09T10:23:36.287Z,22.85
2024-05-09T10:26:06.479Z,22.49
2024-05-09T10:28:37.625Z,22.69
2024-05-09T10:31:11.010Z,23.37
2024-05-09T10:33:52.488Z,22.04
2024-05-09T10:36:20.826Z,22.27
2024-05-09T10:38:49.339Z,22.73
2024-05-09T10:41:20.278Z,21.55
2024-05-09T10:43:47.743Z,22.35
2024-05-09T10:46:14.970Z,23.38
2024-05-09T10:48:43.099Z,23.46
2024-05-09T10:51:09.910Z,23.72
2024-05-09T10:53:43.248Z,23.01
2024-05-09T10:56:10.557Z,23.00
2024-05-09T10:58:37.398Z,21.82
2024-05-09T11:01:07.013Z,21.61
2024-05-09T11:03:35.492Z,21.57
2024-05-09T11:06:02.754Z,21.43
2024-05-09T11:08:31.738Z,21.11
2024-05-09T11:10:59.572Z,20.78
2024-05-09T11:13:34.395Z,20.86
2024-05-09T11:16:01.996Z,21.27
2024-05-09T11:18:33.437Z,21.22
2024-05-09T11:21:02.968Z,20.40
2024-05-09T11:23:31.483Z,20.28
2024-05-09T11:25:58.967Z,20.56
2024-05-09T11:28:28.953Z,20.32
2024-05-09T11:31:08.738Z,20.81
2024-05-09T11:33:41.334Z,21.49
2024-05-09T11:36:09.656Z,21.77
2024-05-09T11:38:36.725Z,22.12
2024-05-09T11:41:04.872Z,22.62
2024-05-09T11:43:32.035Z,22.70
2024-05-09T11:45:59.158Z,22.12
2024-05-09T11:48:26.470Z,21.69
2024-05-09T11:50:54.825Z,21.75
2024-05-09T11:53:21.681Z,21.70
2024-05-09T11:55:48.480Z,21.54
2024-05-09T11:58:17.611Z,20.90
2024-05-09T12:00:45.173Z,20.75
2024-05-09T12:03:12.414Z,20.85
2024-05-09T12:05:39.315Z,20.82
2024-05-09T12:08:06.696Z,21.11
2024-05-09T12:10:35.682Z,21.30
2024-05-09T12:13:05.238Z,21.57
2024-05-09T12:15:34.044Z,21.51
2024-05-09T12:18:03.625Z,21.38
2024-05-09T12:20:36.742Z,21.40
2024-05-09T12:23:05.912Z,21.55
2024-05-09T12:25:32.562Z,21.96
2024-05-09T12:27:59.551Z,21.98
2024-05-09T12:30:35.346Z,21.69
2024-05-09T12:33:06.108Z,21.31
2024-05-09T12:35:33.206Z,20.66
2024-05-09T12:38:00.155Z,21.12
2024-05-09T12:40:35.396Z,20.99
2024-05-09T12:43:06.195Z,21.07
2024-05-09T12:45:33.152Z,21.18
2024-05-09T12:48:00.033Z,20.89
2024-05-09T12:50:32.450Z,21.01
2024-05-09T12:53:01.822Z,21.26
2024-05-09T12:55:33.785Z,21.22
2024-05-09T12:58:07.765Z,21.10
2024-05-09T13:00:34.921Z,21.25
2024-05-09T13:03:01.824Z,21.40
2024-05-09T13:05:29.333Z,21.40
2024-05-09T13:07:57.074Z,21.24
2024-05-09T13:10:31.278Z,21.23
2024-05-09T13:13:00.481Z,21.49
2024-05-09T13:15:27.648Z,21.71
2024-05-09T13:17:56.401Z,22.22
2024-05-09T13:20:31.343Z,22.63
2024-05-09T13:23:02.343Z,22.27
2024-05-09T13:25:30.056Z,21.18
2024-05-09T13:27:57.831Z,21.05
2024-05-09T13:30:30.057Z,20.92
2024-05-09T13:33:06.367Z,21.15
2024-05-09T13:35:34.911Z,21.08
2024-05-09T13:38:02.683Z,21.10
2024-05-09T13:40:33.841Z,20.54
2024-05-09T13:43:03.206Z,20.38
2024-05-09T13:45:30.191Z,20.32
2024-05-09T13:47:57.179Z,20.20
2024-05-09T13:50:32.960Z,20.09
2024-05-09T13:53:02.489Z,20.01
2024-05-09T13:55:29.161Z,19.56
2024-05-09T13:57:56.300Z,19.42
2024-05-09T14:00:37.380Z,19.48
2024-05-09T14:03:09.887Z,19.56
2024-05-09T14:05:36.961Z,19.54
2024-05-09T14:08:04.175Z,19.53
2024-05-09T14:10:32.092Z,19.34
2024-05-09T14:13:00.269Z,19.14
2024-05-09T14:15:27.281Z,19.04
2024-05-09T14:17:54.973Z,19.15
2024-05-09T14:22:51.199Z,19.04
2024-05-09T14:25:17.920Z,19.17
2024-05-09T14:27:44.629Z,19.15
2024-05-09T14:30:18.365Z,18.98
2024-05-09T14:32:52.948Z,18.84
2024-05-09T14:35:19.831Z,18.94
2024-05-09T14:37:46.557Z,19.37
2024-05-09T14:40:30.337Z,19.70
2024-05-09T14:43:03.172Z,19.94
2024-05-09T14:45:30.226Z,20.01
2024-05-09T14:47:57.317Z,19.89
2024-05-09T14:50:32.548Z,19.88
2024-05-09T14:53:03.598Z,20.05
2024-05-09T14:55:30.569Z,20.18
2024-05-09T14:57:57.390Z,20.19
2024-05-09T15:00:28.954Z,20.08
2024-05-09T15:03:00.549Z,20.34
2024-05-09T15:05:27.521Z,20.30
2024-05-09T15:07:57.290Z,20.46
2024-05-09T15:10:33.148Z,20.58
2024-05-09T15:13:02.187Z,20.55
2024-05-09T15:15:28.997Z,20.86
2024-05-09T15:17:55.967Z,21.14
2024-05-09T15:20:31.026Z,21.47
2024-05-09T15:23:02.099Z,21.57
2024-05-09T15:25:28.982Z,21.26
2024-05-09T15:27:55.908Z,20.73
2024-05-09T15:32:52.442Z,21.34
2024-05-09T15:35:19.190Z,21.06
2024-05-09T15:37:48.244Z,21.24
2024-05-09T15:40:21.595Z,21.20
2024-05-09T15:42:53.412Z,21.12
2024-05-09T15:45:20.100Z,20.78
2024-05-09T15:47:46.821Z,20.67
2024-05-09T15:50:20.456Z,20.93
2024-05-09T15:52:55.361Z,20.78
2024-05-09T15:55:22.073Z,21.08
2024-05-09T15:57:48.800Z,20.93
2024-05-09T16:00:24.792Z,20.66
2024-05-09T16:03:00.247Z,20.59
2024-05-09T16:05:27.148Z,20.52
2024-05-09T16:07:54.056Z,20.79
2024-05-09T16:10:25.910Z,20.61
2024-05-09T16:12:58.823Z,20.52
2024-05-09T16:15:26.166Z,20.37
2024-05-09T16:17:53.050Z,20.41
2024-05-09T16:20:33.157Z,20.27
2024-05-09T16:23:05.174Z,20.07
2024-05-09T16:25:31.790Z,20.01
2024-05-09T16:27:58.549Z,19.90
2024-05-09T16:30:31.965Z,19.93
2024-05-09T16:33:02.535Z,19.82
2024-05-09T16:35:29.619Z,19.74
2024-05-09T16:37:56.288Z,19.71
2024-05-09T16:40:30.301Z,19.70
2024-05-09T16:43:04.972Z,19.66
2024-05-09T16:45:31.998Z,19.55
2024-05-09T16:47:59.702Z,19.85
2024-05-09T16:50:32.310Z,19.70
2024-05-09T16:53:01.943Z,19.65
2024-05-09T16:55:28.932Z,19.64
2024-05-09T16:57:56.862Z,19.66
2024-05-09T17:00:35.157Z,19.72
2024-05-09T17:03:08.430Z,20.03
2024-05-09T17:05:35.991Z,19.83
2024-05-09T17:08:03.225Z,19.60
2024-05-09T17:10:33.596Z,19.42
2024-05-09T17:13:02.551Z,19.23
2024-05-09T17:15:29.838Z,18.96
2024-05-09T17:17:56.805Z,18.65
2024-05-09T17:20:31.334Z,18.40
2024-05-09T17:23:02.361Z,18.25
2024-05-09T17:25:29.390Z,18.31
2024-05-09T17:27:56.678Z,18.15
2024-05-09T17:30:31.582Z,18.05
2024-05-09T17:33:03.206Z,18.08
2024-05-09T17:35:31.064Z,17.94
2024-05-09T17:37:58.488Z,17.89
2024-05-09T17:40:31.490Z,17.70
2024-05-09T17:43:02.142Z,17.78
2024-05-09T17:45:28.991Z,17.73
2024-05-09T17:47:55.967Z,17.64
2024-05-09T17:50:30.265Z,17.50
2024-05-09T17:53:01.517Z,17.51
2024-05-09T17:55:28.646Z,17.46
2024-05-09T17:57:55.558Z,17.35
2024-05-09T18:00:32.854Z,17.29
2024-05-09T18:03:05.704Z,17.17
2024-05-09T18:05:32.971Z,17.03
2024-05-09T18:07:59.988Z,16.93
2024-05-09T18:10:33.731Z,16.80
2024-05-09T18:13:05.466Z,16.68
2024-05-09T18:15:32.668Z,16.59
2024-05-09T18:17:59.744Z,16.51
2024-05-09T18:20:36.660Z,16.45
2024-05-09T18:23:08.897Z,16.34
2024-05-09T18:25:35.484Z,16.23
2024-05-09T18:28:03.268Z,16.16
2024-05-09T18:30:34.839Z,16.08
2024-05-09T18:33:04.475Z,16.05
2024-05-09T18:35:31.838Z,15.97
2024-05-09T18:37:58.545Z,15.92
2024-05-09T18:40:32.515Z,15.87
2024-05-09T18:43:03.384Z,15.75
2024-05-09T18:45:30.540Z,15.68
2024-05-09T18:47:57.536Z,15.62
2024-05-09T18:50:32.394Z,15.54
2024-05-09T18:53:06.861Z,15.44
2024-05-09T18:55:33.516Z,15.36
2024-05-09T18:58:00.470Z,15.28
2024-05-09T19:00:34.326Z,15.25
2024-05-09T19:03:05.985Z,15.21
2024-05-09T19:05:35.066Z,15.15
2024-05-09T19:08:02.742Z,15.09
2024-05-09T19:10:34.147Z,15.00
2024-05-09T19:13:05.741Z,14.93
2024-05-09T19:15:36.168Z,14.91
2024-05-09T19:18:03.664Z,14.91
2024-05-09T19:20:34.471Z,14.89
2024-05-09T19:23:02.683Z,14.84
2024-05-09T19:25:29.434Z,14.80
2024-05-09T19:27:56.095Z,14.73
2024-05-09T19:30:30.400Z,14.68
2024-05-09T19:33:05.841Z,14.63
2024-05-09T19:35:32.946Z,14.63
2024-05-09T19:37:59.783Z,14.62
2024-05-09T19:40:31.392Z,14.62
2024-05-09T19:43:01.375Z,14.57
2024-05-09T19:45:28.620Z,14.55
2024-05-09T19:47:55.542Z,14.45
2024-05-09T19:50:30.839Z,14.41
2024-05-09T19:53:04.091Z,14.36
2024-05-09T19:55:30.665Z,14.33
2024-05-09T19:57:58.234Z,14.32
2024-05-09T20:00:32.659Z,14.32
2024-05-09T20:03:02.778Z,14.34
2024-05-09T20:05:32.940Z,14.34
2024-05-09T20:08:00.037Z,14.32
2024-05-09T20:10:31.763Z,14.30
2024-05-09T20:13:00.861Z,14.26
2024-05-09T20:15:27.598Z,14.23
2024-05-09T20:17:55.134Z,14.21
2024-05-09T20:20:32.455Z,14.18
2024-05-09T20:23:04.346Z,14.13
2024-05-09T20:25:30.914Z,14.09
2024-05-09T20:27:57.676Z,14.06
2024-05-09T20:30:31.318Z,14.03
2024-05-09T20:33:01.757Z,14.01
2024-05-09T20:35:31.847Z,13.96
2024-05-09T20:40:31.483Z,13.89
2024-05-09T20:43:01.660Z,13.84
2024-05-09T20:45:28.329Z,13.79
2024-05-09T20:47:55.283Z,13.75
2024-05-09T20:50:29.185Z,13.71
2024-05-09T20:53:03.931Z,13.68
2024-05-09T20:55:30.815Z,13.62
2024-05-09T20:57:57.736Z,13.58
2024-05-09T21:00:33.783Z,13.50
2024-05-09T21:03:06.525Z,13.46
2024-05-09T21:05:34.137Z,13.40
2024-05-09T21:08:01.021Z,13.40
2024-05-09T21:10:32.101Z,13.35
2024-05-09T21:13:00.255Z,13.33
2024-05-09T21:15:27.100Z,13.31
2024-05-09T21:17:53.771Z,13.30
2024-05-09T21:20:24.225Z,13.31
2024-05-09T21:22:57.545Z,13.29
2024-05-09T21:25:24.274Z,13.25
2024-05-09T21:27:51.083Z,13.24
2024-05-09T21:30:26.798Z,13.22
2024-05-09T21:32:59.147Z,13.21
2024-05-09T21:35:25.933Z,13.15
2024-05-09T21:37:52.571Z,13.14
2024-05-09T21:40:27.310Z,13.13
2024-05-09T21:43:00.949Z,13.11
2024-05-09T21:45:27.823Z,13.08
2024-05-09T21:47:54.793Z,13.06
2024-05-09T21:50:28.074Z,13.05
2024-05-09T21:52:59.295Z,13.04
2024-05-09T21:55:26.000Z,13.05
2024-05-09T21:57:52.724Z,13.05
2024-05-09T22:00:28.847Z,13.04
2024-05-09T22:03:02.404Z,13.05
2024-05-09T22:05:29.284Z,13.04
2024-05-09T22:07:57.027Z,13.06
2024-05-09T22:10:30.543Z,13.04
2024-05-09T22:13:00.885Z,13.05
2024-05-09T22:15:27.583Z,13.03
2024-05-09T22:17:56.339Z,13.01
2024-05-09T22:20:32.825Z,13.01
2024-05-09T22:23:03.304Z,12.98
2024-05-09T22:25:31.169Z,12.95
2024-05-09T22:27:58.774Z,12.93
2024-05-09T22:30:34.114Z,12.89
2024-05-09T22:33:05.748Z,12.86
2024-05-09T22:35:33.038Z,12.81
2024-05-09T22:38:00.046Z,12.77
2024-05-09T22:40:38.218Z,12.73
2024-05-09T22:43:13.285Z,12.69
2024-05-09T22:45:40.154Z,12.63
2024-05-09T22:48:08.568Z,12.58
2024-05-09T22:50:35.502Z,12.53
2024-05-09T22:53:02.298Z,12.47
2024-05-09T22:55:29.178Z,12.45
2024-05-09T22:57:56.185Z,12.39
2024-05-09T23:00:30.747Z,12.35
2024-05-09T23:03:00.154Z,12.31
2024-05-09T23:05:27.322Z,12.26
2024-05-09T23:07:54.010Z,12.24
2024-05-09T23:10:27.787Z,12.21
2024-05-09T23:12:59.335Z,12.20
2024-05-09T23:15:26.047Z,12.15
2024-05-09T23:17:52.782Z,12.12
2024-05-09T23:20:29.835Z,12.12
2024-05-09T23:23:03.518Z,12.09
2024-05-09T23:25:30.235Z,12.07
2024-05-09T23:27:57.002Z,12.05
2024-05-09T23:30:33.261Z,12.03
2024-05-09T23:33:04.816Z,11.99
2024-05-09T23:35:31.594Z,11.98
2024-05-09T23:37:58.212Z,11.97
2024-05-09T23:40:36.345Z,11.95
2024-05-09T23:43:06.317Z,11.91
2024-05-09T23:45:33.148Z,11.90
2024-05-09T23:48:00.054Z,11.87
2024-05-09T23:50:33.939Z,11.88
2024-05-09T23:53:03.758Z,11.90
2024-05-09T23:55:31.574Z,11.89
2024-05-09T23:57:58.607Z,11.85
